Latty, Ohio
Current Conditions -  °F | °C
As of 3:42 PM on Thursday 27 Nov 2014 (Local Time) from KDFI Reporting Station
Light Snow Light Snow  
Wind Chill: 25°   Ceiling: 3000
Heat Index: 33°   Visibility: 2mi
Dew Point: 26°   Wind: 9mph
Humidity: 75%   Direction: 270°W
Pressure: 30.22"   Gusts: 20mph
Location:  41.09°N, 84.59°W
Report Text: KDFI 272042Z AUTO 27008G17KT 2SM -SN SCT022 BKN030 OVC049 01/M03 A3022 RMK AO2 SNB36 P0000 T00061033
Loading
Personal Weather Stations






























Interactive Weather Map New forecast layout! Learn more

10-Day Weather Forecast

Advertisements
Track Severe Weather on mobile